Time;durP1;ratioP1;P1;durP2;ratioP2;P2;SDS_P1;SDS_P2;PMS_P1;PMS_P2;Temp;Humidity;BMP_temperature;BMP_pressure;BME280_temperature;BME280_humidity;BME280_pressure;Samples;Min_cycle;Max_cycle;Signal;HPM_P1;HPM_P2
2022/05/27 00:00:41;;;;;;;;;9.80;9.80;;;;;23.44;43.03;99854.53;5047066;28;8854;-80
2022/05/27 00:03:11;;;;;;;;;9.20;8.60;;;;;23.47;42.96;99849.94;5048524;28;8896;-79
2022/05/27 00:05:40;;;;;;;;;8.40;8.40;;;;;23.53;42.71;99854.09;5046459;28;8967;-80
2022/05/27 00:08:09;;;;;;;;;8.80;8.80;;;;;23.51;42.50;99848.84;5039115;28;8914;-80
2022/05/27 00:10:38;;;;;;;;;6.00;6.00;;;;;23.53;42.39;99854.97;5026780;28;8844;-80
2022/05/27 00:13:07;;;;;;;;;10.40;9.00;;;;;23.54;42.42;99846.03;5045657;28;8887;-77
2022/05/27 00:15:37;;;;;;;;;8.40;7.20;;;;;23.54;42.05;99837.19;5087978;28;8856;-70
2022/05/27 00:18:07;;;;;;;;;9.60;9.40;;;;;23.55;41.88;99833.59;5091629;28;8847;-72
2022/05/27 00:20:36;;;;;;;;;10.60;9.00;;;;;23.56;41.99;99827.34;5073028;28;8991;-71
2022/05/27 00:23:05;;;;;;;;;8.20;7.60;;;;;23.55;41.85;99831.81;5073265;28;8864;-78
2022/05/27 00:25:34;;;;;;;;;10.00;8.80;;;;;23.57;41.55;99831.72;5074724;28;9728;-79
2022/05/27 00:28:03;;;;;;;;;11.40;10.60;;;;;23.58;41.55;99836.09;5091319;28;8882;-80
2022/05/27 00:30:31;;;;;;;;;9.20;9.20;;;;;23.59;41.33;99835.19;5072868;27;8840;-78
2022/05/27 00:33:02;;;;;;;;;8.60;8.00;;;;;23.63;41.54;99834.09;5074404;28;8855;-78
2022/05/27 00:35:30;;;;;;;;;10.00;9.20;;;;;23.64;41.50;99833.13;5091821;28;8851;-78
2022/05/27 00:38:00;;;;;;;;;7.80;7.80;;;;;23.67;41.28;99826.81;5091910;28;8840;-80
2022/05/27 00:40:36;;;;;;;;;7.80;7.80;;;;;23.70;41.13;99826.63;5089281;28;8852;-79
2022/05/27 00:43:06;;;;;;;;;13.00;11.20;;;;;23.69;40.84;99827.59;5090841;28;8836;-79
2022/05/27 00:45:37;;;;;;;;;9.40;8.20;;;;;23.70;41.13;99824.81;5090301;28;8847;-79
2022/05/27 00:48:12;;;;;;;;;9.20;8.00;;;;;23.70;41.03;99822.16;5093291;28;8864;-80
2022/05/27 00:50:44;;;;;;;;;7.60;6.00;;;;;23.71;41.17;99828.38;5128050;27;8853;-77
2022/05/27 00:53:19;;;;;;;;;11.80;10.60;;;;;23.67;40.97;99819.69;5111009;28;8825;-77
2022/05/27 00:55:59;;;;;;;;;10.00;9.00;;;;;23.69;41.02;99823.13;5093312;28;8856;-78
2022/05/27 00:58:30;;;;;;;;;7.80;7.80;;;;;23.68;40.79;99824.03;5094041;28;8849;-79
2022/05/27 01:01:00;;;;;;;;;7.20;7.00;;;;;23.66;40.77;99820.59;5111004;28;8856;-79
2022/05/27 01:03:32;;;;;;;;;7.20;7.20;;;;;23.69;40.91;99814.28;5111007;28;8853;-79
2022/05/27 01:06:02;;;;;;;;;6.40;6.40;;;;;23.70;40.58;99805.34;5092279;28;8832;-79
2022/05/27 01:08:31;;;;;;;;;7.00;7.00;;;;;23.69;40.41;99795.63;5091049;28;8839;-79
2022/05/27 01:11:14;;;;;;;;;8.00;8.00;;;;;23.71;40.36;99799.94;5039518;28;8856;-79
2022/05/27 01:13:58;;;;;;;;;7.60;7.60;;;;;23.70;40.31;99798.19;5038987;28;8859;-79
2022/05/27 01:16:40;;;;;;;;;10.20;9.00;;;;;23.70;40.39;99806.19;5091269;28;8890;-81
2022/05/27 01:22:42;;;;;;;;;9.00;7.00;;;;;23.72;40.20;99795.47;5092127;28;8841;-80
2022/05/27 01:25:34;;;;;;;;;6.00;6.00;;;;;23.74;40.01;99793.56;5110636;28;8874;-83
2022/05/27 01:28:28;;;;;;;;;8.00;8.00;;;;;23.72;39.98;99791.03;5109876;28;8848;-79
2022/05/27 01:31:06;;;;;;;;;8.00;8.00;;;;;23.68;40.36;99780.59;5093863;28;8922;-79
2022/05/27 01:33:44;;;;;;;;;9.00;9.00;;;;;23.58;41.13;99784.66;5110187;28;8849;-80
2022/05/27 01:36:21;;;;;;;;;9.60;9.20;;;;;23.49;40.03;99796.63;5110447;28;8888;-79
2022/05/27 01:39:01;;;;;;;;;8.00;8.00;;;;;23.42;41.40;99797.88;5108112;28;8849;-80
2022/05/27 01:41:42;;;;;;;;;9.00;9.00;;;;;23.07;41.63;99793.34;5071854;28;8843;-78
2022/05/27 01:44:19;;;;;;;;;12.80;12.80;;;;;23.03;42.13;99790.88;5073068;28;8879;-80
2022/05/27 01:46:50;;;;;;;;;9.60;9.40;;;;;23.11;41.01;99786.06;5089615;28;8921;-81
2022/05/27 01:49:27;;;;;;;;;7.60;7.00;;;;;23.15;41.58;99784.97;5090951;28;9688;-78
2022/05/27 01:52:03;;;;;;;;;8.20;8.20;;;;;23.20;40.71;99793.63;5092524;28;8844;-79
2022/05/27 01:54:40;;;;;;;;;9.00;8.20;;;;;23.21;40.52;99784.69;5084868;28;8870;-79
2022/05/27 01:57:13;;;;;;;;;7.20;7.20;;;;;23.25;40.34;99777.41;5089537;28;8879;-81
2022/05/27 01:59:57;;;;;;;;;8.80;8.00;;;;;23.32;41.01;99776.19;5100819;28;8859;-79
2022/05/27 02:02:30;;;;;;;;;8.40;7.40;;;;;23.35;40.13;99774.22;5059062;28;8855;-78
2022/05/27 02:05:04;;;;;;;;;7.60;7.60;;;;;23.39;40.25;99771.41;5108774;28;8956;-79
2022/05/27 02:07:38;;;;;;;;;8.20;8.20;;;;;23.40;39.85;99767.81;5107612;28;9013;-78
2022/05/27 02:10:13;;;;;;;;;9.80;9.00;;;;;23.41;40.05;99764.22;5110474;27;8864;-77
2022/05/27 02:12:45;;;;;;;;;6.60;6.60;;;;;23.41;39.68;99761.56;5106726;28;8936;-79
2022/05/27 02:15:19;;;;;;;;;7.40;7.40;;;;;23.40;39.98;99754.50;5090762;28;8907;-76
2022/05/27 02:17:55;;;;;;;;;7.00;7.00;;;;;23.40;39.83;99749.19;5089700;28;8912;-78
2022/05/27 02:20:28;;;;;;;;;7.00;7.00;;;;;23.37;40.03;99749.34;5090686;28;8956;-79
2022/05/27 02:23:01;;;;;;;;;7.40;7.40;;;;;23.35;40.31;99760.91;5123787;27;8944;-80
2022/05/27 02:25:34;;;;;;;;;7.20;7.20;;;;;23.35;40.35;99766.25;5106368;28;9023;-78
2022/05/27 02:28:10;;;;;;;;;8.20;8.00;;;;;23.30;40.81;99767.41;5105995;27;8835;-80
2022/05/27 02:30:44;;;;;;;;;8.80;8.20;;;;;23.24;41.65;99763.25;5090185;28;8866;-79
2022/05/27 02:36:07;;;;;;;;;8.40;8.40;;;;;23.06;41.32;99767.69;5088907;28;8855;-80
2022/05/27 02:38:35;;;;;;;;;11.60;9.00;;;;;23.01;41.11;99768.81;5089059;28;8864;-81
2022/05/27 02:41:17;;;;;;;;;8.80;8.80;;;;;22.91;41.54;99771.03;5071207;28;8859;-78
2022/05/27 02:44:08;;;;;;;;;9.00;9.00;;;;;22.84;40.75;99764.31;5073733;28;8905;-81
2022/05/27 02:46:49;;;;;;;;;6.20;6.20;;;;;22.82;41.22;99767.03;5014564;28;8847;-79
2022/05/27 02:49:27;;;;;;;;;4.00;4.00;;;;;22.83;41.44;99765.22;5048017;28;8843;-82
2022/05/27 02:52:08;;;;;;;;;8.80;8.80;;;;;22.82;41.37;99767.03;5031064;28;8970;-81
2022/05/27 02:54:45;;;;;;;;;9.00;8.80;;;;;22.81;41.14;99781.25;5054302;28;8866;-79
2022/05/27 02:57:19;;;;;;;;;9.60;9.00;;;;;22.70;41.11;99772.91;5037147;28;8970;-79
2022/05/27 02:59:50;;;;;;;;;8.00;8.00;;;;;22.74;41.55;99774.50;5061509;28;8909;-81
2022/05/27 03:02:19;;;;;;;;;9.20;9.20;;;;;22.73;41.66;99768.31;5056074;28;8838;-80
2022/05/27 03:04:53;;;;;;;;;7.40;7.40;;;;;22.75;41.44;99771.75;5058265;28;8822;-81
2022/05/27 03:07:35;;;;;;;;;7.20;7.20;;;;;22.81;41.73;99767.94;5050455;28;9607;-80
2022/05/27 03:10:22;;;;;;;;;8.80;8.80;;;;;22.88;41.68;99766.72;5033862;28;8960;-81
2022/05/27 03:13:11;;;;;;;;;7.60;7.60;;;;;22.93;40.84;99767.38;5050210;28;8837;-79
2022/05/27 03:15:50;;;;;;;;;8.20;7.20;;;;;23.00;40.90;99770.59;5045506;28;8850;-79
2022/05/27 03:18:32;;;;;;;;;9.00;9.00;;;;;23.05;40.45;99767.75;5030232;28;9613;-82
2022/05/27 03:21:13;;;;;;;;;20.00;18.75;;;;;23.08;40.53;99771.13;5047097;28;9084;-81
2022/05/27 03:23:54;;;;;;;;;8.60;8.60;;;;;23.11;40.50;99770.13;5047155;28;8854;-80
2022/05/27 03:26:33;;;;;;;;;9.20;9.20;;;;;23.14;40.49;99773.50;5086906;28;8858;-79
2022/05/27 03:29:17;;;;;;;;;11.60;11.60;;;;;23.11;41.43;99776.28;5070072;28;8854;-82
2022/05/27 03:31:56;;;;;;;;;11.00;8.80;;;;;23.15;40.97;99777.84;5085857;28;8994;-78
2022/05/27 03:34:33;;;;;;;;;12.00;11.20;;;;;23.13;41.02;99773.56;5068329;28;8832;-83
2022/05/27 03:37:09;;;;;;;;;15.60;13.80;;;;;23.19;41.99;99775.91;5066955;28;8880;-82
2022/05/27 03:39:44;;;;;;;;;10.40;9.00;;;;;22.94;42.54;99776.22;5050615;28;9037;-79
2022/05/27 03:42:14;;;;;;;;;8.20;7.40;;;;;23.05;41.91;99779.25;5050620;28;8968;-81
2022/05/27 03:44:51;;;;;;;;;10.60;9.80;;;;;23.07;41.34;99772.06;5066819;28;8938;-79
2022/05/27 03:47:20;;;;;;;;;26.75;25.50;;;;;23.10;40.35;99768.38;5084249;28;8838;-79
2022/05/27 03:49:49;;;;;;;;;8.40;8.40;;;;;23.11;40.67;99764.78;5107398;28;8833;-81
2022/05/27 03:52:23;;;;;;;;;7.40;7.40;;;;;23.20;40.74;99771.47;5080026;28;8877;-82
2022/05/27 03:54:52;;;;;;;;;15.00;14.40;;;;;23.27;40.65;99765.78;5127707;28;8923;-79
2022/05/27 03:57:21;;;;;;;;;7.60;7.00;;;;;23.29;40.12;99774.53;5087803;28;8936;-78
2022/05/27 03:59:50;;;;;;;;;9.40;9.40;;;;;23.36;40.37;99777.75;5119350;28;9606;-79
2022/05/27 04:02:19;;;;;;;;;59.50;49.00;;;;;23.25;40.00;99777.41;5116479;28;8857;-78
2022/05/27 04:04:47;;;;;;;;;50.75;39.50;;;;;23.30;40.13;99772.72;5115173;28;8865;-78
2022/05/27 04:07:16;;;;;;;;;16.40;16.20;;;;;23.31;40.09;99767.34;5084671;28;8890;-80
2022/05/27 04:09:46;;;;;;;;;11.20;10.40;;;;;23.27;40.11;99776.41;5116224;28;8868;-78
2022/05/27 04:12:15;;;;;;;;;9.40;8.00;;;;;23.21;40.23;99770.53;5116333;28;8883;-81
2022/05/27 04:14:44;;;;;;;;;14.60;14.60;;;;;23.29;40.46;99774.53;5111087;28;8874;-79
2022/05/27 04:19:59;;;;;;;;;9.80;9.20;;;;;23.41;40.04;99764.22;5139641;27;8866;-77
2022/05/27 04:22:29;;;;;;;;;9.00;7.60;;;;;23.51;39.64;99760.16;5120640;27;9048;-79
2022/05/27 04:24:59;;;;;;;;;8.40;8.20;;;;;23.61;40.04;99752.53;5095928;28;8974;-79
2022/05/27 04:27:28;;;;;;;;;8.40;6.80;;;;;23.67;38.78;99747.78;5121580;28;8910;-80
2022/05/27 04:29:57;;;;;;;;;6.80;6.40;;;;;23.72;38.43;99748.41;5124839;27;8919;-78
2022/05/27 04:32:27;;;;;;;;;6.00;5.60;;;;;23.74;38.39;99759.84;5108809;28;8895;-80
2022/05/27 04:34:56;;;;;;;;;4.60;4.60;;;;;23.81;37.92;99759.56;5109283;28;9000;-78
2022/05/27 04:37:26;;;;;;;;;7.40;6.80;;;;;23.85;37.51;99753.13;5095236;28;8840;-79
2022/05/27 04:39:55;;;;;;;;;7.00;7.00;;;;;23.93;37.45;99761.56;5123624;28;8860;-77
2022/05/27 04:42:25;;;;;;;;;6.20;6.20;;;;;23.96;36.97;99758.75;5098686;28;8959;-80
2022/05/27 04:44:54;;;;;;;;;6.60;6.60;;;;;24.01;36.85;99750.53;5116694;28;8861;-79
2022/05/27 04:47:23;;;;;;;;;4.60;4.60;;;;;24.09;37.29;99757.16;5124696;28;8950;-79
2022/05/27 04:49:53;;;;;;;;;6.00;6.00;;;;;24.11;36.88;99755.28;5124916;28;8857;-80
2022/05/27 04:52:25;;;;;;;;;4.80;4.80;;;;;24.15;36.81;99747.97;5126909;28;8825;-79
2022/05/27 04:54:55;;;;;;;;;4.80;4.80;;;;;24.18;36.76;99752.28;5091426;28;8990;-80
2022/05/27 04:57:30;;;;;;;;;7.20;7.20;;;;;24.23;37.22;99759.06;5109321;28;8945;-82
2022/05/27 04:59:58;;;;;;;;;7.00;6.00;;;;;24.28;37.18;99756.19;5126070;28;8853;-79
2022/05/27 05:02:27;;;;;;;;;7.80;6.20;;;;;24.33;36.86;99762.13;5125089;28;8947;-80
2022/05/27 05:05:03;;;;;;;;;7.60;6.20;;;;;24.35;36.84;99756.69;5099133;28;8856;-79
2022/05/27 05:07:32;;;;;;;;;6.00;6.00;;;;;24.39;36.97;99759.13;5096682;28;8841;-78
2022/05/27 05:10:01;;;;;;;;;8.00;6.00;;;;;24.41;36.74;99759.91;5112556;28;8903;-78
2022/05/27 05:12:31;;;;;;;;;5.40;5.40;;;;;24.45;36.69;99755.28;5114013;28;8926;-78
2022/05/27 05:15:00;;;;;;;;;9.00;7.80;;;;;24.44;36.63;99753.53;5111909;28;8861;-78
2022/05/27 05:17:29;;;;;;;;;5.40;5.00;;;;;24.54;36.60;99756.59;5094493;28;8948;-80
2022/05/27 05:19:57;;;;;;;;;7.20;6.60;;;;;24.64;36.44;99752.47;5062317;28;8871;-78
2022/05/27 05:22:26;;;;;;;;;5.40;5.40;;;;;24.74;36.16;99748.34;5099745;28;8871;-81
2022/05/27 05:24:54;;;;;;;;;6.80;6.40;;;;;24.82;35.83;99747.91;5095232;28;9622;-81
2022/05/27 05:27:27;;;;;;;;;6.60;6.60;;;;;24.87;35.61;99746.69;5107249;28;8849;-82
2022/05/27 05:29:58;;;;;;;;;5.40;4.20;;;;;24.95;35.71;99743.59;5092202;28;8859;-79
2022/05/27 05:32:26;;;;;;;;;4.40;4.40;;;;;25.05;35.64;99750.16;5107811;28;8856;-79
2022/05/27 05:34:58;;;;;;;;;5.00;5.00;;;;;25.15;35.36;99750.47;5111123;28;9554;-79
2022/05/27 05:37:28;;;;;;;;;5.00;5.00;;;;;25.27;35.26;99752.47;5107076;28;8811;-82
2022/05/27 05:39:57;;;;;;;;;4.20;4.20;;;;;25.42;35.30;99747.16;5089989;28;8962;-80
2022/05/27 05:42:25;;;;;;;;;5.60;5.60;;;;;25.43;35.41;99743.56;5091480;28;8836;-81
2022/05/27 05:44:55;;;;;;;;;3.00;3.00;;;;;25.52;35.66;99739.47;5110932;28;8841;-80
2022/05/27 05:47:26;;;;;;;;;7.60;7.60;;;;;25.65;35.25;99740.47;5092554;28;8861;-82
2022/05/27 05:49:54;;;;;;;;;8.00;7.20;;;;;25.75;35.22;99744.31;5109031;28;8876;-71
2022/05/27 05:52:23;;;;;;;;;7.40;6.80;;;;;25.82;35.27;99759.03;5095201;28;8877;-70
2022/05/27 05:54:51;;;;;;;;;7.00;7.00;;;;;25.91;35.75;99751.41;5090891;28;8886;-72
2022/05/27 05:57:20;;;;;;;;;5.80;5.80;;;;;25.99;35.16;99759.81;5093060;27;8833;-71
2022/05/27 05:59:49;;;;;;;;;6.00;6.00;;;;;26.07;34.36;99757.56;5093787;28;8980;-73
2022/05/27 06:02:17;;;;;;;;;6.00;6.00;;;;;26.10;34.55;99760.03;5089387;28;9006;-73
2022/05/27 06:04:47;;;;;;;;;6.80;6.00;;;;;26.17;34.50;99758.69;5123204;27;8878;-72
2022/05/27 06:07:16;;;;;;;;;5.00;5.00;;;;;26.17;34.66;99756.03;5089528;28;9641;-72
2022/05/27 06:09:44;;;;;;;;;4.60;4.60;;;;;26.13;34.02;99764.34;5106742;28;8887;-72
2022/05/27 06:12:15;;;;;;;;;6.00;6.00;;;;;26.22;34.98;99758.44;5109976;28;8853;-72
2022/05/27 06:14:43;;;;;;;;;7.00;7.00;;;;;26.23;34.99;99758.31;5105821;27;9003;-72
2022/05/27 06:17:12;;;;;;;;;5.60;5.60;;;;;26.31;34.14;99760.50;5089082;28;8836;-74
2022/05/27 06:19:40;;;;;;;;;4.80;4.40;;;;;26.26;34.03;99749.25;5089491;28;8839;-74
2022/05/27 06:22:10;;;;;;;;;6.40;6.00;;;;;26.22;34.22;99758.44;5101478;28;9003;-73
2022/05/27 06:24:39;;;;;;;;;4.20;4.20;;;;;26.18;34.60;99755.09;5109613;28;8857;-73
2022/05/27 06:27:08;;;;;;;;;5.60;5.60;;;;;26.05;34.23;99756.81;5108052;28;8872;-73
2022/05/27 06:35:11;;;;;;;;;5.40;5.40;;;;;26.31;35.08;99757.84;5009850;28;8861;-72
2022/05/27 06:37:41;;;;;;;;;5.20;5.20;;;;;26.30;34.60;99747.25;5045620;28;9023;-73
2022/05/27 06:40:11;;;;;;;;;6.80;6.80;;;;;26.41;34.91;99753.66;5023155;28;8846;-75
2022/05/27 06:42:40;;;;;;;;;7.60;6.60;;;;;26.40;35.47;99749.25;5046025;28;8866;-72
2022/05/27 06:45:12;;;;;;;;;4.20;4.20;;;;;26.52;35.12;99752.97;5045590;28;8873;-72
2022/05/27 06:47:40;;;;;;;;;5.80;5.80;;;;;26.59;35.20;99754.31;5045092;28;8854;-73
2022/05/27 06:50:10;;;;;;;;;7.00;7.00;;;;;26.64;34.74;99754.03;5057165;28;9756;-73
2022/05/27 06:52:41;;;;;;;;;9.40;8.60;;;;;26.69;35.17;99759.94;5004687;28;9024;-70
2022/05/27 06:55:11;;;;;;;;;5.60;5.60;;;;;26.62;35.31;99762.16;5045977;28;8861;-70
2022/05/27 06:57:39;;;;;;;;;4.40;4.40;;;;;26.76;35.67;99758.59;5045661;28;8884;-70
2022/05/27 07:00:11;;;;;;;;;6.80;6.00;;;;;26.89;35.20;99755.13;5045728;28;9608;-71
2022/05/27 07:02:41;;;;;;;;;5.80;5.80;;;;;26.98;34.30;99749.19;4971673;28;8822;-72
2022/05/27 07:05:10;;;;;;;;;6.80;6.80;;;;;27.06;34.85;99757.56;5048979;28;9087;-71
2022/05/27 07:07:39;;;;;;;;;6.40;6.00;;;;;27.15;34.61;99756.94;5065932;28;8950;-68
2022/05/27 07:10:10;;;;;;;;;8.20;7.00;;;;;27.27;33.91;99752.63;5048368;28;8945;-71
2022/05/27 07:12:39;;;;;;;;;6.00;6.00;;;;;27.35;34.26;99752.09;5102166;28;8848;-72
2022/05/27 07:15:09;;;;;;;;;6.60;5.80;;;;;27.38;33.03;99754.59;5074770;28;8871;-71
2022/05/27 07:17:37;;;;;;;;;5.00;4.60;;;;;27.41;32.22;99749.00;5085444;28;8856;-73
2022/05/27 07:20:07;;;;;;;;;4.20;4.20;;;;;27.40;31.94;99750.00;5084503;28;8909;-70
2022/05/27 07:22:35;;;;;;;;;4.00;4.00;;;;;27.43;32.04;99741.75;5084091;28;8829;-72
2022/05/27 07:25:05;;;;;;;;;4.80;4.00;;;;;27.45;31.99;99741.63;5084702;28;8843;-70
2022/05/27 07:27:35;;;;;;;;;4.40;4.40;;;;;27.56;31.64;99739.97;5084628;28;8864;-70
2022/05/27 07:30:04;;;;;;;;;6.40;6.40;;;;;27.59;30.82;99745.09;5084924;28;8990;-71
2022/05/27 07:32:34;;;;;;;;;5.00;4.00;;;;;27.61;30.62;99753.03;5051148;28;8863;-69
2022/05/27 07:35:02;;;;;;;;;3.40;3.40;;;;;27.63;31.09;99752.94;5084712;28;8885;-72
2022/05/27 07:37:31;;;;;;;;;5.00;5.00;;;;;27.68;31.22;99751.66;5083967;28;8950;-72
2022/05/27 07:40:00;;;;;;;;;4.40;4.20;;;;;27.82;30.99;99758.75;5034828;28;8890;-72
2022/05/27 07:42:29;;;;;;;;;5.40;5.40;;;;;27.93;31.15;99755.34;5067748;28;8855;-72
2022/05/27 07:44:59;;;;;;;;;5.60;4.60;;;;;28.00;30.58;99753.97;5082028;28;8875;-71
2022/05/27 07:47:28;;;;;;;;;2.40;2.40;;;;;28.00;30.46;99757.50;5109607;27;9020;-70
2022/05/27 07:49:57;;;;;;;;;5.60;5.60;;;;;28.10;30.57;99752.34;5119587;28;8936;-70
2022/05/27 07:52:26;;;;;;;;;4.60;4.60;;;;;28.10;30.59;99748.81;5119913;27;8857;-71
2022/05/27 07:54:55;;;;;;;;;3.20;3.20;;;;;27.99;30.70;99755.78;5107528;28;8844;-70
2022/05/27 07:57:25;;;;;;;;;4.40;4.40;;;;;28.06;30.79;99764.25;5105179;28;9618;-73
2022/05/27 08:00:08;;;;;;;;;5.20;5.20;;;;;28.04;30.23;99751.94;5093847;28;8845;-72
2022/05/27 08:02:43;;;;;;;;;4.60;4.60;;;;;28.01;30.35;99753.00;5107131;28;9730;-72
2022/05/27 08:05:14;;;;;;;;;4.60;4.60;;;;;28.06;29.92;99756.22;5106684;28;9003;-71
2022/05/27 08:07:43;;;;;;;;;5.40;5.40;;;;;28.09;30.73;99747.97;5068118;28;8848;-71
2022/05/27 08:10:15;;;;;;;;;5.80;5.00;;;;;28.06;31.06;99750.84;5054132;28;8942;-71
2022/05/27 08:12:43;;;;;;;;;5.40;5.40;;;;;28.12;30.34;99746.88;5090067;28;8839;-71
2022/05/27 08:15:14;;;;;;;;;6.00;6.00;;;;;28.08;30.71;99748.06;5067727;28;8919;-71
2022/05/27 08:17:43;;;;;;;;;9.20;8.00;;;;;28.13;30.95;99749.47;5105076;28;8841;-77
2022/05/27 08:20:20;;;;;;;;;6.00;5.80;;;;;28.12;31.01;99738.84;5103104;28;8876;-76
2022/05/27 08:22:50;;;;;;;;;5.60;5.40;;;;;28.04;31.02;99741.22;5102918;28;8860;-78
2022/05/27 08:25:19;;;;;;;;;6.00;6.00;;;;;28.15;30.56;99747.53;5090872;28;8856;-75
2022/05/27 08:27:48;;;;;;;;;6.60;6.20;;;;;27.98;30.64;99751.41;5107899;28;8869;-77
2022/05/27 08:30:23;;;;;;;;;4.80;4.80;;;;;27.98;30.66;99746.03;5071296;28;8852;-76
2022/05/27 08:32:54;;;;;;;;;4.00;4.00;;;;;28.05;30.58;99738.41;5107993;28;8852;-75
2022/05/27 08:38:17;;;;;;;;;4.40;4.40;;;;;28.28;30.66;99741.28;5108078;28;8857;-70
2022/05/27 08:41:14;;;;;;;;;5.00;5.00;;;;;28.39;30.17;99736.88;5111521;28;8883;-71
2022/05/27 08:43:59;;;;;;;;;6.20;6.00;;;;;28.42;29.99;99738.47;5028030;28;8847;-72
2022/05/27 08:46:37;;;;;;;;;4.80;4.00;;;;;28.44;28.47;99731.19;5026885;28;8855;-71
2022/05/27 08:49:10;;;;;;;;;4.00;4.00;;;;;28.56;28.71;99727.66;5027646;28;8859;-73
2022/05/27 08:51:49;;;;;;;;;3.80;3.80;;;;;28.59;29.27;99729.25;5007782;28;8900;-70
2022/05/27 08:54:25;;;;;;;;;3.80;3.80;;;;;28.67;28.67;99734.06;5014637;28;8968;-68
2022/05/27 08:59:47;;;;;;;;;4.40;4.40;;;;;28.69;28.71;99722.22;5027544;28;8875;-72
2022/05/27 09:02:27;;;;;;;;;5.40;5.40;;;;;28.77;29.58;99718.97;5024319;28;8871;-74
2022/05/27 09:05:05;;;;;;;;;5.00;5.00;;;;;28.77;28.69;99719.84;5027167;28;8885;-71
2022/05/27 09:07:42;;;;;;;;;6.80;6.80;;;;;28.88;28.18;99712.81;5026819;28;8848;-70
2022/05/27 09:10:15;;;;;;;;;5.20;5.20;;;;;28.88;27.73;99705.63;5010912;28;8860;-71
2022/05/27 09:13:06;;;;;;;;;4.40;4.00;;;;;28.85;28.33;99707.69;5010127;28;8922;-69
2022/05/27 09:15:48;;;;;;;;;4.00;4.00;;;;;28.90;28.66;99705.50;4986973;28;8887;-74
2022/05/27 09:18:27;;;;;;;;;4.80;4.00;;;;;28.95;28.85;99698.81;4954827;28;8872;-72
2022/05/27 09:21:06;;;;;;;;;4.80;4.00;;;;;28.94;27.50;99698.94;4998437;28;8990;-79
2022/05/27 09:24:04;;;;;;;;;5.80;5.00;;;;;29.01;28.27;99692.13;5048605;28;8860;-78
2022/05/27 09:26:41;;;;;;;;;6.00;6.00;;;;;28.93;28.82;99689.19;5067197;28;8860;-78
2022/05/27 09:29:25;;;;;;;;;4.20;3.60;;;;;28.94;28.49;99686.41;5067204;28;8843;-79
2022/05/27 09:31:57;;;;;;;;;4.40;4.40;;;;;28.91;29.12;99685.75;5053864;28;8887;-80
2022/05/27 09:34:31;;;;;;;;;4.00;4.00;;;;;29.07;28.04;99678.25;5054832;28;8863;-80
2022/05/27 09:37:04;;;;;;;;;5.00;5.00;;;;;29.20;28.04;99672.84;5067943;28;8891;-79
2022/05/27 09:39:33;;;;;;;;;5.40;5.20;;;;;29.31;27.85;99672.03;5060478;28;8933;-81
2022/05/27 09:42:12;;;;;;;;;6.80;5.40;;;;;29.35;27.74;99676.19;5042116;28;8878;-79
2022/05/27 09:44:48;;;;;;;;;3.80;3.80;;;;;29.41;27.95;99664.97;5056587;28;8846;-81
2022/05/27 09:47:18;;;;;;;;;4.40;4.20;;;;;29.37;28.33;99665.31;5049230;28;8992;-84
2022/05/27 09:49:54;;;;;;;;;5.00;4.60;;;;;29.31;28.50;99666.66;5046422;28;9674;-79
2022/05/27 09:52:24;;;;;;;;;5.40;5.40;;;;;29.37;28.28;99658.13;5075233;28;8965;-80
2022/05/27 09:54:59;;;;;;;;;5.40;5.00;;;;;29.31;28.85;99654.06;5073706;28;8870;-83
2022/05/27 09:57:29;;;;;;;;;5.60;5.60;;;;;29.28;28.09;99654.31;5088432;28;8840;-79
2022/05/27 10:00:00;;;;;;;;;4.80;4.80;;;;;29.40;28.39;99651.66;5107887;28;8984;-79
2022/05/27 10:02:34;;;;;;;;;5.80;5.40;;;;;29.47;28.30;99648.38;5096520;28;9565;-80
2022/05/27 10:05:08;;;;;;;;;6.20;6.00;;;;;29.56;28.85;99644.09;5091261;28;8856;-80
2022/05/27 10:07:39;;;;;;;;;5.20;5.20;;;;;29.49;28.90;99634.81;5106778;27;8872;-81
2022/05/27 10:10:28;;;;;;;;;6.60;5.00;;;;;29.48;27.79;99635.78;5090977;28;8885;-79
2022/05/27 10:12:59;;;;;;;;;4.80;4.80;;;;;29.64;28.00;99632.75;5103729;28;8887;-79
2022/05/27 10:15:33;;;;;;;;;6.40;4.40;;;;;29.60;27.43;99634.81;5121154;27;8860;-78
2022/05/27 10:18:14;;;;;;;;;5.80;5.80;;;;;29.72;27.53;99627.66;5090882;28;8939;-78
2022/05/27 10:20:51;;;;;;;;;7.00;6.40;;;;;29.76;27.42;99618.38;5099494;28;8851;-79
2022/05/27 10:23:26;;;;;;;;;6.20;6.20;;;;;29.93;28.00;99625.09;5095610;28;8902;-81
2022/05/27 10:26:00;;;;;;;;;4.60;4.60;;;;;30.07;26.61;99610.53;5084239;28;8833;-78
2022/05/27 10:28:31;;;;;;;;;5.60;5.00;;;;;30.18;25.57;99613.22;5088740;28;8862;-69
2022/05/27 10:31:02;;;;;;;;;4.20;4.20;;;;;30.25;25.84;99611.75;5105634;28;8863;-68
2022/05/27 10:33:40;;;;;;;;;9.40;7.80;;;;;30.18;25.09;99598.91;5106128;28;8855;-69
2022/05/27 10:36:40;;;;;;;;;5.00;5.00;;;;;30.38;25.10;99608.06;5106373;28;8987;-71
2022/05/27 10:39:17;;;;;;;;;5.00;5.00;;;;;30.50;24.66;99607.06;5058064;28;8842;-70
2022/05/27 10:42:01;;;;;;;;;6.00;5.60;;;;;30.62;25.10;99594.41;5029005;28;8872;-69
2022/05/27 10:44:43;;;;;;;;;4.60;4.60;;;;;30.74;24.88;99595.22;5064891;28;8851;-70
2022/05/27 10:47:19;;;;;;;;;3.80;3.80;;;;;30.79;25.25;99584.94;5065217;28;8997;-74
2022/05/27 10:50:06;;;;;;;;;5.00;5.00;;;;;30.90;25.25;99576.81;5065191;28;8852;-72
2022/05/27 10:52:51;;;;;;;;;7.40;7.40;;;;;30.89;25.57;99575.09;5046034;28;8868;-68
2022/05/27 10:55:29;;;;;;;;;8.60;8.60;;;;;30.99;25.78;99564.44;5064134;28;8855;-68
2022/05/27 11:04:25;;;;;;;;;4.80;4.60;;;;;31.50;24.93;99560.06;5064689;28;8899;-70
2022/05/27 11:07:20;;;;;;;;;5.20;5.20;;;;;31.64;24.62;99559.69;5064790;28;8886;-71
2022/05/27 11:10:03;;;;;;;;;4.00;4.00;;;;;31.72;24.14;99549.09;4984830;28;8864;-70
2022/05/27 11:15:40;;;;;;;;;5.60;5.40;;;;;31.92;23.85;99541.06;4991141;28;8878;-70
2022/05/27 11:18:21;;;;;;;;;8.60;7.60;;;;;32.11;24.19;99532.19;5005321;28;8963;-69
2022/05/27 11:21:08;;;;;;;;;6.20;6.20;;;;;31.18;24.77;99528.66;5002469;28;9799;-71
2022/05/27 11:23:57;;;;;;;;;7.20;6.00;;;;;31.60;24.73;99518.66;5003562;28;8854;-69
2022/05/27 11:26:38;;;;;;;;;4.60;4.60;;;;;31.96;24.50;99521.75;5004779;28;8894;-68
2022/05/27 11:29:28;;;;;;;;;4.00;4.00;;;;;32.29;23.92;99510.75;5002934;28;8866;-69
2022/05/27 11:32:03;;;;;;;;;4.20;4.20;;;;;32.54;23.58;99507.50;5004772;28;8924;-68
2022/05/27 11:34:40;;;;;;;;;6.20;6.20;;;;;32.77;23.62;99504.50;5005096;28;8842;-68
2022/05/27 11:37:45;;;;;;;;;7.40;4.40;;;;;32.90;23.40;99504.22;5006290;28;8969;-69
2022/05/27 11:40:33;;;;;;;;;6.75;6.75;;;;;33.13;23.33;99489.38;4976353;28;8862;-67
2022/05/27 11:43:42;;;;;;;;;10.25;9.00;;;;;33.33;24.01;99484.78;5024316;28;8972;-68
2022/05/27 11:46:33;;;;;;;;;6.75;6.50;;;;;33.34;23.16;99481.03;5044357;28;8903;-68
2022/05/27 11:49:18;;;;;;;;;6.20;6.20;;;;;33.66;23.14;99479.78;5107383;28;8967;-70
2022/05/27 11:51:59;;;;;;;;;5.60;5.60;;;;;34.05;23.34;99468.72;5107388;28;8845;-67
2022/05/27 11:54:47;;;;;;;;;4.60;4.60;;;;;34.40;22.30;99464.31;5095236;28;8852;-69
2022/05/27 11:57:31;;;;;;;;;5.60;5.60;;;;;34.75;21.83;99454.47;5107775;28;8837;-76
2022/05/27 12:00:06;;;;;;;;;3.60;3.60;;;;;35.00;21.70;99451.91;5101306;28;8845;-76
2022/05/27 12:02:50;;;;;;;;;5.00;4.75;;;;;35.37;21.26;99450.75;5105978;28;8920;-80
2022/05/27 12:05:22;;;;;;;;;5.00;4.75;;;;;35.53;20.68;99445.41;5107974;28;9000;-77
2022/05/27 12:07:59;;;;;;;;;4.25;4.25;;;;;35.93;20.39;99446.56;5106370;28;9030;-76
2022/05/27 12:10:35;;;;;;;;;4.00;4.00;;;;;36.05;19.98;99441.66;5108210;28;8865;-81
2022/05/27 12:13:12;;;;;;;;;4.00;4.00;;;;;36.31;20.29;99436.09;5067035;27;12753;-75
2022/05/27 12:15:48;;;;;;;;;5.25;5.00;;;;;36.74;19.80;99438.66;5092312;28;8876;-69
2022/05/27 12:18:23;;;;;;;;;7.25;6.75;;;;;36.62;19.77;99430.81;5071629;28;8862;-70
2022/05/27 12:20:53;;;;;;;;;5.75;5.75;;;;;36.93;19.96;99419.22;5069910;28;8878;-72
2022/05/27 12:23:27;;;;;;;;;10.25;9.50;;;;;36.96;19.64;99415.31;5070001;28;8877;-71
2022/05/27 12:26:00;;;;;;;;;5.00;4.75;;;;;35.84;20.35;99409.56;5051879;28;8874;-71
2022/05/27 12:28:31;;;;;;;;;9.25;9.25;;;;;34.77;21.37;99408.25;5071924;28;8863;-77
2022/05/27 12:31:03;;;;;;;;;6.25;6.25;;;;;34.08;22.38;99408.84;5051900;28;8869;-80
2022/05/27 12:33:37;;;;;;;;;9.00;7.75;;;;;34.44;21.94;99391.75;5081068;28;8908;-83
2022/05/27 12:36:08;;;;;;;;;9.75;9.75;;;;;35.36;21.50;99395.69;5071576;28;8939;-81
2022/05/27 12:38:46;;;;;;;;;11.00;10.00;;;;;36.38;20.65;99385.50;5070300;28;8850;-80
2022/05/27 12:41:31;;;;;;;;;8.75;7.25;;;;;35.81;20.58;99378.19;5065252;28;8976;-84
2022/05/27 12:44:02;;;;;;;;;9.50;8.00;;;;;36.56;20.87;99389.91;5072181;28;8866;-86